< < Back
Terminal Aerodrome Forecast


Current Version              Previous Versions:   1  2  3  4  5  6  7  8  9  

Terminal Aerodrome Forecast

560
FTUS44 KBMX 301952 AAA
TAFBHM
TAF AMD
KBHM 301952Z 3020/3118 07008KT P6SM SCT050
     FM310200 08003KT P6SM SKC=



Latest METAR

428
SAUS70 KWBC 310600 RRJ
MTRBHM
METAR KBHM 310553Z 04004KT 10SM CLR 27/19 A3002 RMK AO2 SLP156 T02670194
10322 20267 403500244 53003


USA.gov is the U.S. government's official web portal to all federal, state and local government web resources and services.